Time;durP1;ratioP1;P1;durP2;ratioP2;P2;SDS_P1;SDS_P2;PMS_P1;PMS_P2;Temp;Humidity;BMP_temperature;BMP_pressure;BME280_temperature;BME280_humidity;BME280_pressure;Samples;Min_cycle;Max_cycle;Signal;HPM_P1;HPM_P2
2022/01/24 00:00:36;;;;;;;393.57;375.17;;;6.70;99.90;;;;;;4437038;32;20233;-63
2022/01/24 00:03:06;;;;;;;391.63;373.50;;;6.60;99.90;;;;;;4437653;32;20171;-62
2022/01/24 00:05:33;;;;;;;381.40;363.77;;;6.60;99.90;;;;;;4437121;32;20139;-63
2022/01/24 00:08:00;;;;;;;401.93;383.47;;;6.60;99.90;;;;;;4438467;32;20151;-63
2022/01/24 00:10:28;;;;;;;375.47;358.03;;;6.60;99.90;;;;;;4436913;32;20162;-62
2022/01/24 00:13:20;;;;;;;408.80;389.63;;;6.60;99.90;;;;;;4436971;32;20152;-63
2022/01/24 00:15:56;;;;;;;398.00;379.83;;;6.60;99.90;;;;;;4447607;32;20219;-63
2022/01/24 00:18:30;;;;;;;400.00;381.43;;;6.60;99.90;;;;;;4449452;32;20218;-63
2022/01/24 00:26:45;;;;;;;379.47;361.67;;;6.80;99.90;;;;;;4399081;32;20242;-63
2022/01/24 00:29:12;;;;;;;405.07;386.20;;;6.70;99.90;;;;;;4396623;32;20182;-62
2022/01/24 00:31:42;;;;;;;416.67;396.70;;;6.70;99.90;;;;;;4393167;32;20699;-63
2022/01/24 00:34:09;;;;;;;416.47;396.57;;;6.70;99.90;;;;;;4393845;32;20529;-63
2022/01/24 00:36:36;;;;;;;435.10;414.87;;;6.70;99.90;;;;;;4389625;32;20164;-63
2022/01/24 00:39:03;;;;;;;400.50;381.70;;;6.70;99.90;;;;;;4392375;32;20538;-63
2022/01/24 00:41:35;;;;;;;421.30;401.77;;;6.70;99.90;;;;;;4402487;32;20172;-63
2022/01/24 00:44:28;;;;;;;413.27;393.60;;;6.70;99.90;;;;;;4395298;32;20156;-62
2022/01/24 00:46:59;;;;;;;417.80;398.57;;;6.70;99.90;;;;;;4393913;32;20210;-63
2022/01/24 00:49:46;;;;;;;419.23;399.27;;;6.70;99.90;;;;;;4396856;32;20171;-62
2022/01/24 00:54:57;;;;;;;412.73;393.73;;;6.80;99.90;;;;;;4411539;32;20597;-63
2022/01/24 00:57:24;;;;;;;397.80;378.73;;;6.70;99.90;;;;;;4398900;32;20210;-62
2022/01/24 00:59:51;;;;;;;414.30;394.70;;;6.70;99.90;;;;;;4407627;32;20206;-63
2022/01/24 01:02:20;;;;;;;428.23;407.90;;;6.70;99.90;;;;;;4438383;32;20191;-63
2022/01/24 01:05:02;;;;;;;420.83;400.83;;;6.70;99.90;;;;;;4436673;32;20230;-63
2022/01/24 01:07:37;;;;;;;395.93;377.17;;;6.70;99.90;;;;;;4437961;32;20201;-64
2022/01/24 01:18:20;;;;;;;415.30;395.73;;;6.70;99.90;;;;;;4437811;32;20171;-64
2022/01/24 01:21:08;;;;;;;403.37;384.50;;;6.70;99.90;;;;;;4437875;32;20186;-62
2022/01/24 01:23:38;;;;;;;387.63;369.27;;;6.80;99.90;;;;;;4438153;32;20194;-63
2022/01/24 01:26:10;;;;;;;395.80;376.67;;;6.70;99.90;;;;;;4435614;32;20182;-62
2022/01/24 01:28:41;;;;;;;421.23;401.30;;;6.60;99.90;;;;;;4441274;32;20596;-63
2022/01/24 01:31:15;;;;;;;405.37;386.13;;;6.70;99.90;;;;;;4440711;32;20169;-65
2022/01/24 01:33:54;;;;;;;395.63;376.57;;;6.60;99.90;;;;;;4436022;32;20227;-64
2022/01/24 01:36:33;;;;;;;388.17;369.40;;;6.70;99.90;;;;;;4435616;32;20151;-62
2022/01/24 01:39:29;;;;;;;403.17;383.97;;;6.60;99.90;;;;;;4438444;32;20175;-62
2022/01/24 01:53:15;;;;;;;403.57;383.50;;;6.60;99.90;;;;;;4439873;32;20201;-64
2022/01/24 01:55:42;;;;;;;393.60;373.97;;;6.60;99.90;;;;;;4440772;32;20571;-64
2022/01/24 01:58:11;;;;;;;404.37;383.80;;;6.60;99.90;;;;;;4438765;32;20147;-62
2022/01/24 02:00:39;;;;;;;409.73;389.07;;;6.60;99.90;;;;;;4440529;32;20166;-63
2022/01/24 02:03:06;;;;;;;425.20;404.23;;;6.50;99.90;;;;;;4438642;32;20151;-64
2022/01/24 02:05:37;;;;;;;411.30;391.00;;;6.50;99.90;;;;;;4438999;32;20155;-63
2022/01/24 02:08:04;;;;;;;401.60;381.67;;;6.50;99.90;;;;;;4438903;32;20190;-62
2022/01/24 02:10:33;;;;;;;428.23;406.80;;;6.50;99.90;;;;;;4439599;32;20170;-62
2022/01/24 02:13:00;;;;;;;411.93;391.17;;;6.50;99.90;;;;;;4448287;32;20170;-65
2022/01/24 02:15:37;;;;;;;426.77;405.17;;;6.60;99.90;;;;;;4438336;32;20682;-62
2022/01/24 02:18:11;;;;;;;411.47;391.07;;;6.50;99.90;;;;;;4438188;32;20208;-61
2022/01/24 02:21:07;;;;;;;383.07;364.20;;;6.50;99.90;;;;;;4438113;32;20607;-62
2022/01/24 02:23:41;;;;;;;378.43;360.00;;;6.50;99.90;;;;;;4438726;32;20152;-62
2022/01/24 02:26:16;;;;;;;397.67;378.03;;;6.50;99.90;;;;;;4438159;32;20583;-62
2022/01/24 02:31:41;;;;;;;377.60;358.93;;;6.50;99.90;;;;;;4442836;32;20292;-63
2022/01/24 02:34:28;;;;;;;391.73;372.33;;;6.50;99.90;;;;;;4438433;32;20250;-65
2022/01/24 02:36:57;;;;;;;398.23;378.17;;;6.50;99.90;;;;;;4438241;32;20199;-62
2022/01/24 02:50:27;;;;;;;398.20;378.03;;;6.50;99.90;;;;;;4390495;32;20263;-62
2022/01/24 02:52:57;;;;;;;403.17;383.07;;;6.40;99.90;;;;;;4398406;32;20265;-62
2022/01/24 02:55:25;;;;;;;430.30;408.57;;;6.40;99.90;;;;;;4405213;32;20160;-62
2022/01/24 02:57:52;;;;;;;387.20;367.63;;;6.40;99.90;;;;;;4403435;32;20157;-62
2022/01/24 03:00:18;;;;;;;419.83;398.67;;;6.50;99.90;;;;;;4396659;32;20176;-62
2022/01/24 03:02:45;;;;;;;433.57;411.37;;;6.30;99.90;;;;;;4392969;32;20781;-62
2022/01/24 03:05:12;;;;;;;413.30;392.43;;;6.40;99.90;;;;;;4401285;32;20275;-62
2022/01/24 03:07:39;;;;;;;442.90;420.67;;;6.40;99.90;;;;;;4405645;32;20199;-62
2022/01/24 03:10:13;;;;;;;439.93;417.57;;;6.40;99.90;;;;;;4404970;32;20251;-62
2022/01/24 03:12:44;;;;;;;420.87;399.63;;;6.40;99.90;;;;;;4400993;32;20164;-63
2022/01/24 03:15:11;;;;;;;401.10;380.50;;;6.40;99.90;;;;;;4390730;32;20493;-62
2022/01/24 03:17:38;;;;;;;397.60;377.40;;;6.40;99.90;;;;;;4390387;32;20163;-62
2022/01/24 03:20:06;;;;;;;415.50;394.57;;;6.40;99.90;;;;;;4397199;32;20180;-62
2022/01/24 03:22:33;;;;;;;397.70;377.77;;;6.40;99.90;;;;;;4392533;32;20237;-62
2022/01/24 03:25:00;;;;;;;389.30;369.40;;;6.30;99.90;;;;;;4416747;32;20519;-62
2022/01/24 03:27:27;;;;;;;398.07;377.67;;;6.30;99.90;;;;;;4438263;32;20177;-62
2022/01/24 03:29:55;;;;;;;403.73;383.40;;;6.30;99.90;;;;;;4438084;32;20207;-62
2022/01/24 03:32:22;;;;;;;410.23;389.47;;;6.20;99.90;;;;;;4437380;32;20143;-62
2022/01/24 03:34:49;;;;;;;374.40;355.43;;;6.30;99.90;;;;;;4439249;32;20185;-62
2022/01/24 03:37:15;;;;;;;400.53;380.43;;;6.30;99.90;;;;;;4437443;32;20320;-62
2022/01/24 03:39:42;;;;;;;400.27;379.77;;;6.30;99.90;;;;;;4451816;32;20183;-62
2022/01/24 03:42:09;;;;;;;426.07;404.43;;;6.20;99.90;;;;;;4451365;32;20181;-62
2022/01/24 03:44:37;;;;;;;423.77;401.80;;;6.20;99.90;;;;;;4441472;32;20196;-62
2022/01/24 03:47:30;;;;;;;421.87;399.77;;;6.20;99.90;;;;;;4437360;32;20143;-62
2022/01/24 03:49:57;;;;;;;403.33;382.67;;;6.20;99.90;;;;;;4437477;32;20143;-61
2022/01/24 03:52:24;;;;;;;398.63;378.27;;;6.20;99.90;;;;;;4438340;32;20151;-61
2022/01/24 03:54:51;;;;;;;422.93;400.67;;;6.20;99.90;;;;;;4438338;32;20187;-61
2022/01/24 03:57:20;;;;;;;422.63;400.73;;;6.20;99.90;;;;;;4437267;32;20177;-60
2022/01/24 03:59:48;;;;;;;415.03;392.93;;;6.20;99.90;;;;;;4437354;32;20614;-63
2022/01/24 04:02:18;;;;;;;406.13;385.13;;;6.20;99.90;;;;;;4439592;32;20185;-63
2022/01/24 04:04:45;;;;;;;394.03;373.70;;;6.20;99.90;;;;;;4448974;32;20641;-61
2022/01/24 04:07:12;;;;;;;405.20;383.83;;;6.10;99.90;;;;;;4452580;32;20195;-63
2022/01/24 04:09:41;;;;;;;419.87;397.83;;;6.20;99.90;;;;;;4452478;32;20189;-63
2022/01/24 04:12:09;;;;;;;420.27;398.43;;;6.10;99.90;;;;;;4448048;32;20192;-63
2022/01/24 04:14:40;;;;;;;394.37;373.50;;;6.10;99.90;;;;;;4442334;32;20215;-63
2022/01/24 04:17:20;;;;;;;391.33;370.87;;;6.10;99.90;;;;;;4452373;32;20216;-63
2022/01/24 04:22:45;;;;;;;398.83;378.33;;;6.10;99.90;;;;;;4452682;32;20157;-61
2022/01/24 04:25:15;;;;;;;361.43;342.40;;;6.10;99.90;;;;;;4443328;32;20153;-60
2022/01/24 04:27:42;;;;;;;388.57;368.47;;;6.10;99.90;;;;;;4452529;32;20593;-61
2022/01/24 04:30:10;;;;;;;415.83;394.43;;;6.00;99.90;;;;;;4440773;32;20214;-61
2022/01/24 04:32:37;;;;;;;408.10;387.10;;;6.00;99.90;;;;;;4436883;32;20586;-61
2022/01/24 04:35:05;;;;;;;426.10;404.33;;;6.00;99.90;;;;;;4440400;32;20226;-61
2022/01/24 04:37:32;;;;;;;442.63;419.83;;;6.00;99.90;;;;;;4436743;32;20223;-61
2022/01/24 04:39:59;;;;;;;432.43;410.03;;;5.90;99.90;;;;;;4436572;32;20203;-61
2022/01/24 04:42:35;;;;;;;429.63;407.30;;;6.00;99.90;;;;;;4437562;32;20177;-61
2022/01/24 04:45:24;;;;;;;410.97;389.47;;;6.00;99.90;;;;;;4436090;32;20167;-61
2022/01/24 04:50:57;;;;;;;363.13;344.23;;;6.00;99.90;;;;;;4438543;32;20535;-61
2022/01/24 04:53:46;;;;;;;366.90;348.20;;;5.90;99.90;;;;;;4437210;32;20207;-61
2022/01/24 04:56:13;;;;;;;390.83;371.10;;;6.00;99.90;;;;;;4437733;32;20197;-61
2022/01/24 04:58:40;;;;;;;433.67;411.33;;;5.90;99.90;;;;;;4436451;32;20174;-61
2022/01/24 05:01:06;;;;;;;408.97;388.27;;;5.90;99.90;;;;;;4436410;32;20163;-61
2022/01/24 05:03:33;;;;;;;410.30;389.43;;;5.90;99.90;;;;;;4443387;32;20222;-62
2022/01/24 05:06:04;;;;;;;425.03;403.27;;;5.90;99.90;;;;;;4442380;32;20158;-62
2022/01/24 05:08:31;;;;;;;433.67;411.23;;;5.90;99.90;;;;;;4439061;32;20147;-61
2022/01/24 05:11:04;;;;;;;422.93;400.63;;;6.00;99.90;;;;;;4436559;32;20171;-62
2022/01/24 05:24:25;;;;;;;424.73;402.40;;;5.90;99.90;;;;;;4367507;32;1997421;-62
2022/01/24 05:26:52;;;;;;;405.40;385.03;;;5.90;99.90;;;;;;4429269;32;20177;-62
2022/01/24 05:29:19;;;;;;;432.00;409.67;;;5.90;99.90;;;;;;4436032;32;20181;-62
2022/01/24 05:31:45;;;;;;;440.13;416.63;;;5.90;99.90;;;;;;4436142;32;20447;-62
2022/01/24 05:34:12;;;;;;;438.47;415.27;;;5.90;99.90;;;;;;4436069;32;20211;-62
2022/01/24 05:36:39;;;;;;;425.37;403.37;;;5.90;99.90;;;;;;4430120;32;20204;-62
2022/01/24 05:39:06;;;;;;;418.67;396.93;;;5.90;99.90;;;;;;4436288;32;20631;-62
2022/01/24 05:41:35;;;;;;;426.27;404.40;;;5.90;99.90;;;;;;4436061;32;20153;-62
2022/01/24 05:44:02;;;;;;;434.10;411.57;;;5.90;99.90;;;;;;4437024;32;20563;-61
2022/01/24 05:46:29;;;;;;;433.03;411.00;;;5.90;99.90;;;;;;4431845;32;20178;-62
2022/01/24 05:48:56;;;;;;;436.57;413.90;;;5.90;99.90;;;;;;4435381;32;20157;-62
2022/01/24 05:51:24;;;;;;;450.00;426.50;;;5.90;99.90;;;;;;4437268;32;20574;-62
2022/01/24 05:53:51;;;;;;;448.90;426.00;;;5.90;99.90;;;;;;4435285;32;20147;-62
2022/01/24 05:56:18;;;;;;;433.47;411.07;;;5.90;99.90;;;;;;4432850;32;20173;-62
2022/01/24 05:58:46;;;;;;;429.87;408.03;;;5.90;99.90;;;;;;4421295;32;20132;-62
2022/01/24 06:01:13;;;;;;;410.73;389.23;;;5.90;99.90;;;;;;4420240;32;20144;-62
2022/01/24 06:03:40;;;;;;;429.13;407.03;;;5.90;99.90;;;;;;4421950;32;20154;-62
2022/01/24 06:06:08;;;;;;;435.37;413.33;;;5.90;99.90;;;;;;4422931;32;20161;-62
2022/01/24 06:08:34;;;;;;;429.67;407.53;;;5.90;99.90;;;;;;4433752;32;20554;-62
2022/01/24 06:11:01;;;;;;;450.07;426.30;;;5.90;99.90;;;;;;4435516;32;20572;-62
2022/01/24 06:13:31;;;;;;;461.07;437.23;;;5.90;99.90;;;;;;4426998;32;20486;-62
2022/01/24 06:16:01;;;;;;;423.73;401.73;;;5.90;99.90;;;;;;4431367;32;20174;-62
2022/01/24 06:18:28;;;;;;;421.97;400.13;;;5.90;99.90;;;;;;4429979;32;20174;-62
2022/01/24 06:20:57;;;;;;;458.47;434.50;;;5.90;99.90;;;;;;4432476;32;20166;-64
2022/01/24 06:23:26;;;;;;;413.83;392.77;;;5.90;99.90;;;;;;4419894;32;20152;-66
2022/01/24 06:25:53;;;;;;;414.07;393.40;;;5.90;99.90;;;;;;4427009;32;20225;-62
2022/01/24 06:28:19;;;;;;;438.40;416.10;;;5.90;99.90;;;;;;4429398;32;20131;-62
2022/01/24 06:30:46;;;;;;;455.23;431.50;;;5.90;99.90;;;;;;4434983;32;20222;-62
2022/01/24 06:33:14;;;;;;;442.27;419.77;;;5.90;99.90;;;;;;4428769;32;20178;-64
2022/01/24 06:35:41;;;;;;;437.93;414.97;;;5.90;99.90;;;;;;4424130;32;20292;-64
2022/01/24 06:38:08;;;;;;;418.80;397.47;;;5.90;99.90;;;;;;4431500;32;20151;-63
2022/01/24 06:40:35;;;;;;;410.00;389.40;;;5.90;99.90;;;;;;4425413;32;20167;-63
2022/01/24 06:43:02;;;;;;;429.40;407.67;;;5.90;99.90;;;;;;4434104;32;20151;-62
2022/01/24 06:45:29;;;;;;;433.07;410.57;;;5.80;99.90;;;;;;4425453;32;20209;-65
2022/01/24 06:47:56;;;;;;;417.47;396.47;;;5.80;99.90;;;;;;4430783;32;20460;-62
2022/01/24 06:50:24;;;;;;;418.13;396.60;;;5.90;99.90;;;;;;4429340;32;20202;-62
2022/01/24 06:52:51;;;;;;;424.37;403.03;;;5.90;99.90;;;;;;4428563;32;20166;-64
2022/01/24 06:55:18;;;;;;;432.33;410.17;;;5.80;99.90;;;;;;4430969;32;20225;-62
2022/01/24 06:57:45;;;;;;;439.83;416.87;;;5.80;99.90;;;;;;4426577;32;20571;-62
2022/01/24 07:00:12;;;;;;;469.57;444.90;;;5.90;99.90;;;;;;4429163;32;20143;-65
2022/01/24 07:02:39;;;;;;;452.23;428.43;;;5.90;99.90;;;;;;4427454;32;20148;-62
2022/01/24 07:05:07;;;;;;;478.63;453.50;;;5.90;99.90;;;;;;4428737;32;20146;-62
2022/01/24 07:07:35;;;;;;;458.00;433.80;;;5.90;99.90;;;;;;4425959;32;20229;-64
2022/01/24 07:10:02;;;;;;;455.80;432.03;;;5.90;99.90;;;;;;4426607;32;20549;-62
2022/01/24 07:12:29;;;;;;;456.73;432.57;;;5.90;99.90;;;;;;4428729;32;20167;-62
2022/01/24 07:14:56;;;;;;;456.00;431.87;;;5.90;99.90;;;;;;4426589;32;20144;-62
2022/01/24 07:17:56;;;;;;;459.53;435.80;;;5.90;99.90;;;;;;4425820;32;20259;-62
2022/01/24 07:20:21;;;;;;;439.60;416.53;;;5.90;99.90;;;;;;4423384;32;20217;-62
2022/01/24 07:22:49;;;;;;;421.40;399.47;;;5.90;99.90;;;;;;4424900;32;20223;-62
2022/01/24 07:25:16;;;;;;;437.73;414.33;;;5.90;99.90;;;;;;4427337;32;20215;-62
2022/01/24 07:27:43;;;;;;;434.43;411.77;;;5.90;99.90;;;;;;4426275;32;20549;-63
2022/01/24 07:30:10;;;;;;;441.73;418.40;;;5.90;99.90;;;;;;4425373;32;20714;-62
2022/01/24 07:32:37;;;;;;;444.90;421.13;;;5.80;99.90;;;;;;4426518;32;20231;-64
2022/01/24 07:35:04;;;;;;;437.03;414.20;;;5.80;99.90;;;;;;4425515;32;20183;-64
2022/01/24 07:37:31;;;;;;;439.53;415.80;;;5.80;99.90;;;;;;4426921;32;20233;-62
2022/01/24 07:39:59;;;;;;;443.70;420.27;;;5.90;99.90;;;;;;4425494;32;20223;-64
2022/01/24 07:42:51;;;;;;;423.93;401.57;;;5.90;99.90;;;;;;4427540;32;20170;-62
2022/01/24 07:45:16;;;;;;;390.57;369.93;;;5.80;99.90;;;;;;4427688;32;20181;-62
2022/01/24 07:47:43;;;;;;;410.67;389.33;;;5.80;99.90;;;;;;4425261;32;20163;-62
2022/01/24 07:50:12;;;;;;;427.10;404.77;;;5.90;99.90;;;;;;4425375;32;20240;-60
2022/01/24 07:52:39;;;;;;;424.20;402.03;;;5.90;99.90;;;;;;4424653;32;20265;-62
2022/01/24 07:55:08;;;;;;;386.40;366.10;;;5.90;99.90;;;;;;4425759;32;20567;-62
2022/01/24 07:57:34;;;;;;;401.03;379.50;;;5.90;99.90;;;;;;4429088;32;20169;-61
2022/01/24 08:00:01;;;;;;;430.90;408.33;;;5.80;99.90;;;;;;4426765;32;20230;-61
2022/01/24 08:02:28;;;;;;;436.00;412.73;;;5.90;99.90;;;;;;4428431;32;20447;-63
2022/01/24 08:04:55;;;;;;;395.37;374.03;;;5.90;99.90;;;;;;4426706;32;20230;-61
2022/01/24 08:07:22;;;;;;;409.07;387.97;;;5.90;99.90;;;;;;4425922;32;20172;-62
2022/01/24 08:09:49;;;;;;;434.33;411.63;;;5.80;99.90;;;;;;4426287;32;20159;-63
2022/01/24 08:12:17;;;;;;;444.93;421.03;;;5.80;99.90;;;;;;4428333;32;20146;-63
2022/01/24 08:14:44;;;;;;;405.83;384.53;;;5.90;99.90;;;;;;4429371;32;20210;-64
2022/01/24 08:17:11;;;;;;;439.37;415.93;;;5.90;99.90;;;;;;4423239;32;20163;-63
2022/01/24 08:19:38;;;;;;;463.90;438.80;;;5.90;99.90;;;;;;4423682;32;20139;-65
2022/01/24 08:22:05;;;;;;;443.07;419.23;;;5.90;99.90;;;;;;4421555;32;20173;-63
2022/01/24 08:24:32;;;;;;;436.23;413.23;;;5.90;99.90;;;;;;4429014;32;20460;-63
2022/01/24 08:26:59;;;;;;;435.67;412.50;;;6.00;99.90;;;;;;4421229;32;20165;-63
2022/01/24 08:29:27;;;;;;;411.00;389.00;;;6.10;99.90;;;;;;4431611;32;20258;-63
2022/01/24 08:31:55;;;;;;;419.00;396.97;;;6.10;99.90;;;;;;4428250;32;20216;-63
2022/01/24 08:34:22;;;;;;;432.53;409.23;;;6.00;99.90;;;;;;4431375;32;20134;-61
2022/01/24 08:36:49;;;;;;;437.33;414.20;;;6.00;99.90;;;;;;4422555;32;20226;-64
2022/01/24 08:39:16;;;;;;;432.80;409.47;;;6.10;99.90;;;;;;4427555;32;20473;-63
2022/01/24 08:41:57;;;;;;;443.77;420.60;;;6.10;99.90;;;;;;4425009;32;20144;-63
2022/01/24 08:45:43;;;;;;;433.33;410.40;;;6.10;99.90;;;;;;4428957;32;20146;-62
2022/01/24 08:47:23;;;;;;;419.23;397.63;;;6.10;99.90;;;;;;4425528;32;20199;-63
2022/01/24 08:49:51;;;;;;;374.00;355.83;;;6.10;99.90;;;;;;4421765;32;20187;-63
2022/01/24 08:52:18;;;;;;;406.00;386.43;;;6.10;99.90;;;;;;4421363;32;20144;-63
2022/01/24 08:54:45;;;;;;;417.70;397.33;;;6.00;99.90;;;;;;4424804;32;20490;-63
2022/01/24 08:57:13;;;;;;;424.53;403.33;;;6.10;99.90;;;;;;4426591;32;20558;-63
2022/01/24 08:59:42;;;;;;;412.93;392.27;;;6.10;99.90;;;;;;4428596;32;20155;-63
2022/01/24 09:02:10;;;;;;;410.40;390.50;;;6.20;99.90;;;;;;4426986;32;20158;-63
2022/01/24 09:04:37;;;;;;;410.73;391.13;;;6.20;99.90;;;;;;4422877;32;20206;-63
2022/01/24 09:07:04;;;;;;;424.97;404.40;;;6.20;99.90;;;;;;4420343;32;20186;-63
2022/01/24 09:09:34;;;;;;;436.87;415.50;;;6.30;99.90;;;;;;4423724;32;20193;-60
2022/01/24 09:12:01;;;;;;;417.57;397.13;;;6.20;99.90;;;;;;4421568;32;20559;-60
2022/01/24 09:14:28;;;;;;;443.43;421.70;;;6.20;99.90;;;;;;4421701;32;20128;-61
2022/01/24 09:16:56;;;;;;;429.27;408.13;;;6.30;99.90;;;;;;4433506;32;20158;-61
2022/01/24 09:19:23;;;;;;;431.33;410.03;;;6.20;99.90;;;;;;4425456;32;20566;-60
2022/01/24 09:21:50;;;;;;;408.80;388.90;;;6.30;99.90;;;;;;4423789;32;20151;-62
2022/01/24 09:24:17;;;;;;;405.07;385.73;;;6.40;99.90;;;;;;4421358;32;20454;-62
2022/01/24 09:26:44;;;;;;;411.00;391.10;;;6.40;99.90;;;;;;4420368;32;20155;-62
2022/01/24 09:29:11;;;;;;;432.53;411.43;;;6.40;99.90;;;;;;4423691;32;20179;-62
2022/01/24 09:31:38;;;;;;;426.73;406.10;;;6.30;99.90;;;;;;4425174;32;20158;-62
2022/01/24 09:34:06;;;;;;;437.17;415.90;;;6.30;99.90;;;;;;4425491;32;20140;-63
2022/01/24 09:36:33;;;;;;;419.80;399.47;;;6.40;99.90;;;;;;4432815;32;20139;-62
2022/01/24 09:39:00;;;;;;;435.50;414.23;;;6.40;99.90;;;;;;4429656;32;20144;-63
2022/01/24 09:41:27;;;;;;;425.37;404.17;;;6.40;99.90;;;;;;4423180;32;20195;-62
2022/01/24 09:43:54;;;;;;;426.87;405.93;;;6.50;99.90;;;;;;4420260;32;20147;-63
2022/01/24 09:46:21;;;;;;;419.07;398.13;;;6.50;99.90;;;;;;4425731;32;20148;-63
2022/01/24 09:48:48;;;;;;;427.37;406.67;;;6.50;99.90;;;;;;4422360;32;20164;-62
2022/01/24 09:51:17;;;;;;;433.97;412.70;;;6.50;99.90;;;;;;4421275;32;20148;-63
2022/01/24 09:53:44;;;;;;;427.90;406.77;;;6.60;99.90;;;;;;4424675;32;20199;-63
2022/01/24 09:56:10;;;;;;;426.67;405.30;;;6.60;99.90;;;;;;4431813;32;20166;-63
2022/01/24 09:58:38;;;;;;;416.50;396.13;;;6.60;99.90;;;;;;4430438;32;20163;-63
2022/01/24 10:01:08;;;;;;;434.23;413.27;;;6.60;99.90;;;;;;4427023;32;20158;-62
2022/01/24 10:03:35;;;;;;;444.23;422.87;;;6.70;99.90;;;;;;4427903;32;20167;-63
2022/01/24 10:06:02;;;;;;;423.87;403.47;;;6.70;99.90;;;;;;4430398;32;20524;-63
2022/01/24 10:08:31;;;;;;;407.53;387.90;;;6.70;99.90;;;;;;4423547;32;20211;-63
2022/01/24 10:11:01;;;;;;;395.23;376.43;;;6.70;99.90;;;;;;4423239;32;20214;-63
2022/01/24 10:16:29;;;;;;;440.77;419.40;;;6.70;99.90;;;;;;4427232;32;20186;-62
2022/01/24 10:19:08;;;;;;;426.47;405.70;;;6.70;99.90;;;;;;4428108;32;20157;-62
2022/01/24 10:21:41;;;;;;;436.50;415.20;;;6.70;99.90;;;;;;4430560;32;20158;-63
2022/01/24 10:24:10;;;;;;;448.20;426.23;;;6.80;99.90;;;;;;4430892;32;20150;-63
2022/01/24 10:26:37;;;;;;;442.37;420.90;;;6.90;99.90;;;;;;4437335;32;20155;-63
2022/01/24 10:29:11;;;;;;;449.17;427.70;;;6.90;99.90;;;;;;4436226;32;20139;-63
2022/01/24 10:31:46;;;;;;;439.83;418.63;;;6.90;99.90;;;;;;4427862;32;20173;-61
2022/01/24 10:34:18;;;;;;;445.67;424.03;;;6.90;99.90;;;;;;4424440;32;20182;-62
2022/01/24 10:36:47;;;;;;;440.20;418.47;;;7.00;99.90;;;;;;4427829;32;20615;-63
2022/01/24 10:39:30;;;;;;;440.40;419.60;;;7.00;99.90;;;;;;4432370;32;20498;-62
2022/01/24 10:45:10;;;;;;;361.30;344.43;;;7.00;99.90;;;;;;4434597;32;20180;-61
2022/01/24 10:47:44;;;;;;;385.20;366.53;;;7.00;99.90;;;;;;4432473;32;20555;-62
2022/01/24 10:50:18;;;;;;;407.67;388.13;;;6.90;99.90;;;;;;4427885;32;20147;-62
2022/01/24 10:52:46;;;;;;;419.83;399.83;;;6.90;99.90;;;;;;4429407;32;20162;-62
2022/01/24 10:55:17;;;;;;;392.57;374.07;;;7.00;99.90;;;;;;4432078;32;20143;-62
2022/01/24 10:57:47;;;;;;;430.53;409.77;;;7.00;99.90;;;;;;4437088;32;20254;-62
2022/01/24 11:00:16;;;;;;;417.03;397.17;;;7.00;99.90;;;;;;4428177;32;20183;-62
2022/01/24 11:02:44;;;;;;;385.37;367.37;;;7.10;99.90;;;;;;4426917;32;20148;-62
2022/01/24 11:05:13;;;;;;;395.97;377.43;;;7.10;99.90;;;;;;4424067;32;20155;-62
2022/01/24 11:07:51;;;;;;;417.97;398.37;;;7.00;99.90;;;;;;4425951;32;20143;-61
2022/01/24 11:10:20;;;;;;;428.60;408.23;;;7.00;99.90;;;;;;4425069;32;20226;-61
2022/01/24 11:12:47;;;;;;;416.40;396.17;;;7.00;99.90;;;;;;4425307;32;20143;-63
2022/01/24 11:15:14;;;;;;;390.87;372.37;;;7.10;99.90;;;;;;4430529;32;20187;-63
2022/01/24 11:17:43;;;;;;;407.37;388.03;;;7.00;99.90;;;;;;4430434;32;20135;-63
2022/01/24 11:20:14;;;;;;;424.43;404.27;;;7.10;99.90;;;;;;4425605;32;20290;-64
2022/01/24 11:22:44;;;;;;;442.80;421.77;;;7.10;99.90;;;;;;4427397;32;20208;-62
2022/01/24 11:25:12;;;;;;;482.97;458.63;;;7.20;99.90;;;;;;4429214;32;20160;-66
2022/01/24 11:27:43;;;;;;;432.03;411.37;;;7.30;99.90;;;;;;4424840;32;20516;-63
2022/01/24 11:30:14;;;;;;;403.30;383.93;;;7.40;99.90;;;;;;4427572;32;20161;-63
2022/01/24 11:32:49;;;;;;;407.00;387.57;;;7.40;99.90;;;;;;4428909;32;20164;-62
2022/01/24 11:35:30;;;;;;;374.33;356.70;;;7.20;99.90;;;;;;4430325;32;20157;-63
2022/01/24 11:37:58;;;;;;;405.30;386.33;;;7.20;99.90;;;;;;4427914;32;20140;-63
2022/01/24 11:40:43;;;;;;;431.63;410.90;;;7.20;99.90;;;;;;4428830;32;20534;-63
2022/01/24 11:46:08;;;;;;;400.87;382.07;;;7.30;99.90;;;;;;4360519;32;2191161;-64
2022/01/24 11:48:36;;;;;;;403.93;384.97;;;7.30;99.90;;;;;;4428218;32;20182;-63
2022/01/24 11:51:06;;;;;;;373.90;356.70;;;7.30;99.90;;;;;;4430807;32;20199;-64
2022/01/24 11:53:38;;;;;;;418.83;399.13;;;7.40;99.90;;;;;;4430706;32;20159;-65
2022/01/24 11:56:26;;;;;;;390.10;371.83;;;7.40;99.90;;;;;;4424958;32;20199;-63
2022/01/24 11:59:08;;;;;;;391.23;373.27;;;7.50;99.90;;;;;;4427914;32;20278;-62
2022/01/24 12:01:51;;;;;;;407.13;388.33;;;7.40;99.90;;;;;;4423462;32;20239;-62
2022/01/24 12:04:49;;;;;;;389.97;371.80;;;7.30;99.90;;;;;;4417074;32;20188;-63
2022/01/24 12:10:37;;;;;;;399.50;381.07;;;7.30;99.90;;;;;;4416356;32;20293;-63
2022/01/24 12:13:13;;;;;;;370.67;353.53;;;7.40;99.90;;;;;;4423272;32;21298;-63
2022/01/24 12:15:58;;;;;;;413.53;393.97;;;7.30;99.90;;;;;;4421770;32;20559;-63
2022/01/24 12:19:01;;;;;;;378.47;360.57;;;7.30;99.90;;;;;;4421040;32;20673;-63
2022/01/24 12:21:44;;;;;;;382.57;365.17;;;7.40;99.90;;;;;;4420982;32;20204;-63
2022/01/24 12:24:14;;;;;;;417.37;397.97;;;7.50;99.90;;;;;;4415648;32;20846;-62
2022/01/24 12:26:43;;;;;;;434.53;413.53;;;7.50;99.90;;;;;;4414829;32;20164;-63
2022/01/24 12:29:14;;;;;;;439.80;419.03;;;7.60;99.90;;;;;;4415895;32;20235;-63
2022/01/24 12:35:58;;;;;;;421.30;401.67;;;7.60;99.90;;;;;;4432100;32;20614;-63
2022/01/24 12:38:54;;;;;;;424.00;404.17;;;7.70;99.90;;;;;;4426621;32;20163;-63
2022/01/24 12:41:37;;;;;;;394.67;376.13;;;7.70;99.90;;;;;;4438607;32;20151;-63
2022/01/24 12:46:16;;;;;;;380.47;362.90;;;7.70;99.90;;;;;;4424128;32;20185;-63
2022/01/24 12:47:00;;;;;;;398.20;379.83;;;7.60;99.90;;;;;;4422520;32;20219;-63
2022/01/24 12:49:34;;;;;;;374.27;357.07;;;7.50;99.90;;;;;;4428749;32;20152;-62
2022/01/24 12:52:06;;;;;;;379.80;362.40;;;7.40;99.90;;;;;;4428830;32;20147;-62
2022/01/24 12:54:44;;;;;;;392.87;374.57;;;7.40;99.90;;;;;;4430676;32;20186;-63
2022/01/24 12:57:20;;;;;;;424.23;404.37;;;7.20;99.90;;;;;;4419712;32;20159;-63
2022/01/24 13:00:09;;;;;;;467.30;444.80;;;7.20;99.90;;;;;;4417216;32;20217;-63
2022/01/24 13:05:36;;;;;;;437.63;416.63;;;7.30;99.90;;;;;;4419569;32;20631;-63
2022/01/24 13:11:09;;;;;;;436.10;415.63;;;7.30;99.90;;;;;;4387196;32;20173;-63
2022/01/24 13:13:41;;;;;;;412.73;393.50;;;7.30;99.90;;;;;;4385723;32;20322;-63
2022/01/24 13:22:00;;;;;;;442.30;421.30;;;7.20;99.90;;;;;;4345246;33;20207;-63
2022/01/24 13:24:41;;;;;;;415.67;395.70;;;7.30;99.90;;;;;;4345600;33;20521;-62
2022/01/24 13:27:21;;;;;;;406.00;386.70;;;7.30;99.90;;;;;;4348694;33;20175;-61
2022/01/24 13:29:59;;;;;;;384.27;365.93;;;7.30;99.90;;;;;;4347444;33;20175;-61
2022/01/24 13:32:57;;;;;;;363.43;346.83;;;7.20;99.90;;;;;;4354498;32;20172;-60
2022/01/24 13:35:53;;;;;;;374.30;356.87;;;7.10;99.90;;;;;;4340557;33;20523;-61
2022/01/24 13:38:28;;;;;;;403.77;385.10;;;7.10;99.90;;;;;;4353008;33;20177;-61
2022/01/24 13:41:28;;;;;;;390.57;372.30;;;7.00;99.90;;;;;;4336746;32;20212;-61
2022/01/24 13:44:09;;;;;;;402.43;383.67;;;7.10;99.90;;;;;;4390427;32;20183;-63
2022/01/24 13:46:44;;;;;;;416.20;396.57;;;6.90;99.90;;;;;;4392394;32;20180;-62
2022/01/24 13:49:17;;;;;;;436.03;414.93;;;6.80;99.90;;;;;;4389161;32;20182;-63
2022/01/24 13:52:03;;;;;;;417.67;398.23;;;6.70;99.90;;;;;;4386985;32;20670;-62
2022/01/24 13:54:34;;;;;;;408.63;389.33;;;6.80;99.90;;;;;;4386497;32;20210;-63
2022/01/24 13:57:14;;;;;;;417.17;397.23;;;6.80;99.90;;;;;;4393581;32;20201;-62
2022/01/24 14:00:07;;;;;;;404.67;385.50;;;6.70;99.90;;;;;;4403173;32;20133;-62
2022/01/24 14:02:41;;;;;;;415.93;395.97;;;6.60;99.90;;;;;;4415645;32;20147;-62
2022/01/24 14:05:29;;;;;;;459.80;437.07;;;6.60;99.90;;;;;;4410805;32;20162;-62